Overview Statistics Trail Chart Weather Telemetry Raw packets
 

This is the latest recevied weather packets stored in our database for station/object EA2KR-10. If no packets are shown the sender has not sent any weather packets the latest 10 day(s).

<< 15 16 17 18 19 20 >>
Time Temp. Humidity Pressure Rain* Wind** Luminosity Snow
1787871807 25° C 30% 1027.5 hPa - - - -
1787870001 25.56° C 29% 1027.1 hPa - - - -
1787868201 26.11° C 29% 1026.7 hPa - - - -
1787866401 26.67° C 28% 1026.3 hPa - - - -
1787864601 27.22° C 27% 1026 hPa - - - -
1787862801 27.78° C 27% 1025.7 hPa - - - -
1787861000 28.89° C 26% 1025.2 hPa - - - -
1787859200 29.44° C 26% 1024.8 hPa - - - -
1787857400 30° C 26% 1024.7 hPa - - - -
1787855602 30° C 25% 1023.9 hPa - - - -
1787853802 30.56° C 26% 1023.6 hPa - - - -
1787852002 30.56° C 26% 1023.7 hPa - - - -
1787850202 31.67° C 26% 1023.5 hPa - - - -
1787848401 31.67° C 26% 1023.3 hPa - - - -
1787846601 32.22° C 27% 1023.1 hPa - - - -
1787844801 32.22° C 27% 1022.7 hPa - - - -
1787843001 32.78° C 27% 1022.8 hPa - - - -
1787841201 32.22° C 28% 1022.8 hPa - - - -
1787839401 31.67° C 29% 1022.8 hPa - - - -
1787837601 31.11° C 30% 1023 hPa - - - -
1787835801 30.56° C 30% 1023.1 hPa - - - -
1787834126 30° C 31% 1022.8 hPa - - - -
1787834004 30° C 31% 1022.8 hPa - - - -
1787832200 30° C 31% 1023 hPa - - - -
1787830442 29.44° C 31% 1023.2 hPa - - - -

* Rain since midnight (hover to see other rain measurements)
** Current wind speed in m/s (hover to see current wind gust speed)